M I D A S
Marine Information and Data Acquisition System
Tripno 695 of the Zeeleeuw from 2004-04-15 06:10:35 to 2004-04-15 15:07:12
Back to CruiseResearch ActivitiesStationsMapUnderway DataData graphs

EquipmentUnitsComment
TimeDGPSUTC
LatitudeDGPSDM.mWGS84
LongitudeDGPSDM.mWGS84
TemperatureSBE03/SBE38deg celciusITS90
ConductivitySBE21S/mITS90
SalinitySBE21 Practical Salinity Units
ChlorophylAChelsea fluorimeterg/lCalibrated in Aceton
Missing or incorrect values are displayed as -999
Sea surface data collected by the RV Zeeleeuw from 2004-04-15 06:10:35 to 2004-04-15 15:07:12
Time Latitude Longitude Temperature Conductivity Salinity ChlorophylA
2004-04-15 06:11:36 51°13.597 2°56.095 16.193645 3.919912 27.987024 0.39858
2004-04-15 06:12:37 51°13.615 2°56.02 16.204245 3.921283 27.995558 0.39858
2004-04-15 06:13:37 51°13.649 2°55.91 16.209288 3.921704 27.997031 0.39858
2004-04-15 06:14:37 51°13.677 2°55.787 16.21228 3.922021 27.997668 0.39858
2004-04-15 06:15:36 51°13.684 2°55.747 16.213092 3.922231 27.997936 0.39858
2004-04-15 06:16:36 51°13.727 2°55.761 16.21322 3.922548 27.997636 0.39858
2004-04-15 06:17:36 51°13.734 2°55.759 16.215656 3.922548 27.996232 0.39858
2004-04-15 06:18:36 51°13.812 2°55.65 16.214417 3.922969 27.996768 0.39858
2004-04-15 06:19:36 51°13.92 2°55.572 16.218861 3.92318 27.997973 0.364871
2004-04-15 06:20:36 51°14.038 2°55.5 16.223647 3.923391 27.996837 0.364871
2004-04-15 06:21:36 51°14.165 2°55.41 16.230227 3.923707 27.996537 0.39858
2004-04-15 06:22:36 51°14.292 2°55.229 16.2386 3.923918 27.996806 0.39858
2004-04-15 06:23:36 51°14.403 2°54.959 16.244025 3.924128 27.994735 0.364871
2004-04-15 06:24:36 51°14.514 2°54.642 16.246845 3.924339 27.995003 0.364871
2004-04-15 06:25:36 51°14.623 2°54.317 16.251714 3.924655 27.995172 0.364871
2004-04-15 06:26:36 51°14.732 2°53.991 10.793316 4.056756 29.413162 8.82593
2004-04-15 06:27:36 51°14.84 2°53.667 9.823391 3.438443 30.87767 19.781486
2004-04-15 06:28:36 51°14.949 2°53.34 9.701661 3.404105 30.815631 17.657794
2004-04-15 06:29:36 51°15.049 2°53.005 9.650849 3.404528 30.926222 16.680221
2004-04-15 06:30:36 51°15.135 2°52.658 9.598677 3.403897 30.97857 16.073452
2004-04-15 06:31:36 51°15.222 2°52.311 9.55638 3.409691 31.075001 16.71393
2004-04-15 06:32:36 51°15.293 2°51.954 9.537488 3.420015 31.224634 17.657794
2004-04-15 06:33:36 51°15.328 2°51.583 9.489621 3.420647 31.262233 19.376973
2004-04-15 06:34:36 51°15.286 2°51.21 9.478795 3.419278 31.285999 16.309418
2004-04-15 06:35:35 51°15.244 2°50.841 9.459171 3.419068 31.294533 15.500392
2004-04-15 06:36:36 51°15.203 2°50.46 9.443563 3.422017 31.339454 16.781349
2004-04-15 06:37:36 51°15.166 2°50.084 9.425159 3.417909 31.324805 14.556529
2004-04-15 06:38:36 51°15.129 2°49.709 9.426437 3.411484 31.264466 12.567674
2004-04-15 06:39:36 51°15.093 2°49.336 9.434574 3.408429 31.2327 12.196871
2004-04-15 06:40:36 51°15.06 2°48.962 9.410631 3.412853 31.28409 13.511537
2004-04-15 06:41:36 51°15.026 2°48.589 9.40533 3.413486 31.310494 12.533965
2004-04-15 06:42:36 51°15.006 2°48.22 9.421752 3.427601 31.443419 19.714067
2004-04-15 06:43:36 51°15.032 2°47.848 9.429134 3.424968 31.411603 19.444392
2004-04-15 06:44:36 51°15.032 2°47.477 9.426247 3.426864 31.429466 19.950033
2004-04-15 06:45:36 51°15.002 2°47.115 9.392596 3.428549 31.450202 20.489383
2004-04-15 06:46:36 51°14.967 2°46.755 9.366222 3.477009 31.984059 45.973691
2004-04-15 06:47:36 51°14.944 2°46.388 9.398987 3.464473 31.860424 42.939845
2004-04-15 06:48:36 51°14.897 2°46.028 9.352723 3.473111 31.958116 40.445349
2004-04-15 06:49:37 51°14.843 2°45.661 9.341779 3.483963 32.080719 48.232221
2004-04-15 06:50:36 51°14.802 2°45.303 9.312493 3.487756 32.133452 50.457042
2004-04-15 06:51:36 51°14.762 2°44.939 9.298461 3.499661 32.295155 53.996529
2004-04-15 06:52:36 51°14.723 2°44.572 9.335383 3.492707 32.204732 50.254785
2004-04-15 06:53:35 51°14.685 2°44.211 9.335146 3.488914 32.149718 44.659024
2004-04-15 06:54:36 51°14.645 2°43.837 9.33671 3.491232 32.178587 46.546751
2004-04-15 06:55:36 51°14.607 2°43.47 9.345807 3.490495 32.165889 44.827571
2004-04-15 06:56:36 51°14.57 2°43.102 9.346707 3.484174 32.093874 41.355503
2004-04-15 06:57:36 51°14.532 2°42.735 9.359733 3.474797 31.994337 37.748597
2004-04-15 06:58:36 51°14.497 2°42.366 9.357033 3.489336 32.148884 40.344221
2004-04-15 06:59:36 51°14.46 2°42 9.353386 3.470056 31.942229 36.872153
2004-04-15 07:00:36 51°14.423 2°41.636 9.349454 3.46953 31.939766 35.624905
2004-04-15 07:01:36 51°14.386 2°41.271 9.349881 3.47248 31.972837 35.658614
2004-04-15 07:02:36 51°14.35 2°40.906 9.336426 3.48312 32.084566 37.175537
2004-04-15 07:03:36 51°14.312 2°40.544 9.338131 3.489652 32.158 40.681315
2004-04-15 07:04:36 51°14.275 2°40.183 9.332587 3.504402 32.314156 42.737589
2004-04-15 07:05:36 51°14.237 2°39.824 9.331308 3.513041 32.405616 47.15352
2004-04-15 07:06:35 51°14.2 2°39.474 9.317138 3.534429 32.63084 53.794272
2004-04-15 07:07:36 51°14.162 2°39.113 9.339363 3.540013 32.687381 54.299913
2004-04-15 07:08:36 51°14.121 2°38.759 9.276222 3.551287 32.818103 52.378477
2004-04-15 07:09:37 51°14.052 2°38.408 9.282719 3.577734 33.133883 62.154204
2004-04-15 07:10:36 51°13.962 2°38.082 9.30908 3.578892 33.12303 60.333896
2004-04-15 07:11:36 51°13.872 2°37.75 9.346565 3.575731 33.049616 61.378888
2004-04-15 07:12:36 51°13.783 2°37.416 9.330645 3.577944 33.071596 64.749828
2004-04-15 07:13:36 51°13.689 2°37.087 9.337515 3.577101 33.060665 67.648836
2004-04-15 07:14:36 51°13.582 2°36.768 9.336236 3.569198 32.969676 65.019503
2004-04-15 07:15:36 51°13.478 2°36.449 9.351254 3.580261 33.087089 68.188187
2004-04-15 07:16:36 51°13.36 2°36.145 9.355802 3.589007 33.16634 68.255606
2004-04-15 07:17:36 51°13.231 2°35.852 9.360444 3.577311 33.049219 67.109486
2004-04-15 07:18:36 51°13.103 2°35.557 9.386963 3.580683 33.059658 68.255606
2004-04-15 07:19:36 51°12.977 2°35.261 9.371242 3.611872 33.380788 68.154477
2004-04-15 07:20:36 51°12.85 2°34.97 9.448388 3.618826 33.411052 68.255606
2004-04-15 07:21:37 51°12.708 2°34.689 9.459786 3.623883 33.43019 57.333759
2004-04-15 07:22:36 51°12.563 2°34.434 9.452314 3.63832 33.576843 48.26593
2004-04-15 07:23:36 51°12.401 2°34.205 9.458415 3.658131 33.778799 38.962136
2004-04-15 07:24:37 51°12.239 2°33.97 9.47019 3.667193 33.869628 33.770888
2004-04-15 07:25:36 51°12.082 2°33.743 9.467542 3.674359 33.934788 29.523503
2004-04-15 07:26:36 51°11.944 2°33.565 9.444272 3.682263 34.030015 30.433657
2004-04-15 07:27:36 51°11.858 2°33.528 9.451746 3.6869 34.08783 28.073999
2004-04-15 07:28:36 51°11.804 2°33.495 9.447867 3.689534 34.113392 26.253691
2004-04-15 07:29:36 51°11.758 2°33.483 9.45955 3.690904 34.123603 28.073999
2004-04-15 07:30:36 51°11.714 2°33.47 9.456428 3.692907 34.139541 28.54593
2004-04-15 07:31:37 51°11.668 2°33.435 9.447536 3.693644 34.148691 28.781896
2004-04-15 07:32:37 51°11.63 2°33.377 9.435568 3.694698 34.17279 30.062853
2004-04-15 07:33:36 51°11.601 2°33.309 9.428802 3.696385 34.198739 31.478648
2004-04-15 07:34:36 51°11.58 2°33.233 9.411341 3.697649 34.222703 30.534785
2004-04-15 07:35:36 51°11.558 2°33.159 9.403437 3.697966 34.237688 32.186546
2004-04-15 07:36:36 51°11.536 2°33.087 9.390513 3.698387 34.249857 32.186546
2004-04-15 07:37:36 51°11.515 2°33.013 9.375646 3.697755 34.260559 31.916871
2004-04-15 07:38:36 51°11.496 2°32.938 9.363428 3.69765 34.268089 31.310101
2004-04-15 07:39:36 51°11.472 2°32.871 9.359497 3.697755 34.278583 31.984289
2004-04-15 07:40:36 51°11.439 2°32.815 9.346754 3.697755 34.283289 32.321383
2004-04-15 07:41:36 51°11.405 2°32.757 9.336426 3.698072 34.295968 32.355093
2004-04-15 07:42:37 51°11.366 2°32.705 9.326095 3.697545 34.305444 31.849452
2004-04-15 07:43:36 51°11.328 2°32.654 9.31619 3.69744 34.314569 31.714614
2004-04-15 07:44:36 51°11.291 2°32.601 9.31145 3.69744 34.324003 31.546067
2004-04-15 07:45:36 51°11.251 2°32.553 9.310218 3.697545 34.322733 30.467366
2004-04-15 07:46:36 51°11.208 2°32.511 9.312493 3.697756 34.326485 29.422375
2004-04-15 07:47:36 51°11.16 2°32.486 9.310882 3.698072 34.329753 29.523503
2004-04-15 07:48:36 51°11.108 2°32.477 9.311782 3.698388 34.334594 29.894306
2004-04-15 07:49:37 51°11.053 2°32.473 9.307326 3.698704 34.339436 29.725759
2004-04-15 07:50:36 51°11 2°32.464 9.298888 3.69881 34.345247 29.557212
2004-04-15 07:51:36 51°10.948 2°32.448 9.295617 3.698915 34.350273 29.489794
2004-04-15 07:52:36 51°10.901 2°32.414 9.287272 3.699021 34.35845 30.568494
2004-04-15 07:53:36 51°10.867 2°32.359 9.282008 3.698494 34.357726 31.343811
2004-04-15 07:54:36 51°10.842 2°32.294 9.277313 3.698389 34.363727 32.48993
2004-04-15 07:55:36 51°10.815 2°32.231 9.273187 3.697967 34.364094 31.444939
2004-04-15 07:56:36 51°10.782 2°32.176 9.272049 3.6986 34.372214 29.557212
2004-04-15 07:57:37 51°10.749 2°32.119 9.27295 3.698494 34.371912 28.411093
2004-04-15 07:58:36 51°10.718 2°32.063 9.275037 3.699443 34.380939 28.377383
2004-04-15 07:59:36 51°10.686 2°32.007 9.273187 3.699759 34.383422 26.826751
2004-04-15 08:00:36 51°10.655 2°31.949 9.274894 3.700391 34.387599 26.489657
2004-04-15 08:01:36 51°10.625 2°31.892 9.269108 3.700286 34.391242 27.231264
2004-04-15 08:02:36 51°10.595 2°31.834 9.27589 3.700496 34.392634 26.961589
2004-04-15 08:03:36 51°10.567 2°31.776 9.278451 3.701445 34.396138 25.849178
2004-04-15 08:04:37 51°10.543 2°31.715 9.27295 3.70134 34.400571 25.950306
2004-04-15 08:05:36 51°10.522 2°31.653 9.27774 3.701129 34.399178 26.186272
2004-04-15 08:06:35 51°10.505 2°31.59 9.292535 3.702393 34.402797 24.399674
2004-04-15 08:07:36 51°10.491 2°31.537 9.310171 3.705133 34.41379 22.242272
2004-04-15 08:08:35 51°10.478 2°31.511 9.315953 3.706398 34.415828 20.792768
2004-04-15 08:09:36 51°10.464 2°31.495 9.327091 3.707873 34.42241 19.747777
2004-04-15 08:10:36 51°10.469 2°31.414 9.323821 3.7084 34.422338 19.747777
2004-04-15 08:11:37 51°10.553 2°31.361 9.33036 3.708716 34.422453 19.646648
2004-04-15 08:12:37 51°10.63 2°31.419 9.33543 3.710086 34.433461 17.758922
2004-04-15 08:13:36 51°10.683 2°31.494 9.339979 3.710823 34.437144 19.208426
2004-04-15 08:14:35 51°10.728 2°31.572 9.342774 3.710929 34.43508 19.950033
2004-04-15 08:15:36 51°10.773 2°31.654 9.341069 3.711667 34.442703 21.062443
2004-04-15 08:16:36 51°10.814 2°31.739 9.336994 3.711456 34.443679 21.770341
2004-04-15 08:17:36 51°10.853 2°31.821 9.331782 3.71114 34.440411 22.275982
2004-04-15 08:18:36 51°10.896 2°31.895 9.336662 3.710824 34.438721 22.781623
2004-04-15 08:19:36 51°10.943 2°31.961 9.340927 3.71135 34.439436 21.332118
2004-04-15 08:20:37 51°10.994 2°32.024 9.331024 3.71114 34.441988 21.197281
2004-04-15 08:21:36 51°11.042 2°32.085 9.318892 3.710929 34.448486 22.95017
2004-04-15 08:22:36 51°11.092 2°32.149 9.300358 3.709348 34.447132 25.512084
2004-04-15 08:23:36 51°11.141 2°32.213 9.292298 3.708189 34.446193 27.500939
2004-04-15 08:24:36 51°11.189 2°32.279 9.285565 3.707979 34.451119 27.770614
2004-04-15 08:25:36 51°11.238 2°32.345 9.260807 3.707136 34.452664 28.073999
2004-04-15 08:26:36 51°11.286 2°32.411 9.245008 3.705344 34.460994 30.905589
2004-04-15 08:27:35 51°11.334 2°32.475 9.248472 3.704396 34.458289 30.501076
2004-04-15 08:28:36 51°11.383 2°32.54 9.245198 3.704291 34.451661 29.388665
2004-04-15 08:29:36 51°11.432 2°32.606 9.239457 3.703869 34.455204 30.399947
2004-04-15 08:30:37 51°11.481 2°32.673 9.236799 3.703237 34.452608 29.523503
2004-04-15 08:31:35 51°11.528 2°32.738 9.232908 3.702605 34.450013 29.725759
2004-04-15 08:32:37 51°11.578 2°32.809 9.238223 3.703132 34.453099 28.680768
2004-04-15 08:33:36 51°11.625 2°32.877 9.249041 3.703131 34.44598 27.197554
2004-04-15 08:34:36 51°11.674 2°32.946 9.24776 3.703448 34.44451 25.849178
2004-04-15 08:35:35 51°11.722 2°33.015 9.247855 3.703974 34.448386 25.343537
2004-04-15 08:36:36 51°11.77 2°33.088 9.242351 3.703658 34.449065 26.253691
2004-04-15 08:37:36 51°11.817 2°33.16 9.215868 3.702078 34.446135 27.635777
2004-04-15 08:38:36 51°11.864 2°33.231 9.195263 3.699549 34.445246 28.00658
2004-04-15 08:39:36 51°11.912 2°33.303 9.186762 3.697863 34.443599 29.658341
2004-04-15 08:40:36 51°11.959 2°33.375 9.190752 3.697336 34.44051 29.590922
2004-04-15 08:41:36 51°12.003 2°33.446 9.194266 3.69723 34.431498 29.624631
2004-04-15 08:42:36 51°12.05 2°33.519 9.195785 3.697336 34.425467 29.422375
2004-04-15 08:43:36 51°12.096 2°33.59 9.178831 3.696282 34.427203 30.737042
2004-04-15 08:44:36 51°12.141 2°33.662 9.174366 3.694596 34.420006 31.444939
2004-04-15 08:45:37 51°12.184 2°33.735 9.168618 3.693226 34.412919 33.06299
2004-04-15 08:46:37 51°12.222 2°33.816 9.169616 3.693331 34.406888 33.366375
2004-04-15 08:47:37 51°12.255 2°33.91 9.172893 3.692383 34.401006 33.669759
2004-04-15 08:48:36 51°12.285 2°34.012 9.168808 3.692067 34.400892 33.770888
2004-04-15 08:49:36 51°12.314 2°34.105 9.155648 3.690802 34.396478 35.726033
2004-04-15 08:50:36 51°12.343 2°34.185 9.161492 3.690275 34.391802 36.46764
2004-04-15 08:51:36 51°12.401 2°34.27 9.173606 3.689854 34.385054 35.591195
2004-04-15 08:52:36 51°12.463 2°34.318 9.181016 3.691013 34.385212 32.658477
2004-04-15 08:53:36 51°12.512 2°34.34 9.184673 3.691329 34.379791 30.635913
2004-04-15 08:54:35 51°12.552 2°34.351 9.188235 3.690697 34.369281 31.310101
2004-04-15 08:55:37 51°12.586 2°34.359 9.179733 3.690381 34.369165 35.018136
2004-04-15 08:56:36 51°12.617 2°34.37 9.18377 3.689854 34.370025 37.478922
2004-04-15 08:57:35 51°12.65 2°34.379 9.172466 3.689327 34.362979 37.175537
2004-04-15 08:58:37 51°12.774 2°34.434 9.196497 3.689748 34.361818 36.602477
2004-04-15 08:59:37 51°12.936 2°34.692 9.159069 3.689643 34.352824 32.422512
2004-04-15 09:00:36 51°13.068 2°35.028 9.191084 3.686376 34.350553 36.804734
2004-04-15 09:01:36 51°13.194 2°35.379 9.266974 3.686586 34.282524 31.141554
2004-04-15 09:02:36 51°13.306 2°35.743 9.284664 3.687745 34.259127 29.826888
2004-04-15 09:03:37 51°13.417 2°36.117 9.341969 3.685953 34.202945 30.26511
2004-04-15 09:04:36 51°13.526 2°36.479 9.368874 3.68532 34.155729 26.354819
2004-04-15 09:05:36 51°13.638 2°36.849 9.372189 3.683001 34.10996 27.804324
2004-04-15 09:06:35 51°13.747 2°37.213 9.386394 3.680051 34.075644 30.602204
2004-04-15 09:07:36 51°13.854 2°37.588 9.377445 3.676362 34.036072 35.591195
2004-04-15 09:08:35 51°13.95 2°37.953 9.343059 3.668986 33.996584 46.108529
2004-04-15 09:09:36 51°14.047 2°38.332 9.419528 3.656129 33.823013 54.232494
2004-04-15 09:10:36 51°14.056 2°38.72 9.381896 3.652125 33.782564 61.446306
2004-04-15 09:11:37 51°13.892 2°38.919 9.468487 3.635897 33.591789 64.446443
2004-04-15 09:12:36 51°13.698 2°38.811 9.388194 3.594907 33.157981 66.502717
2004-04-15 09:13:37 51°13.494 2°38.688 9.416168 3.602283 33.259443 68.154477
2004-04-15 09:14:36 51°13.314 2°38.525 9.427714 3.634 33.560035 68.221896
2004-04-15 09:15:37 51°13.128 2°38.352 9.429843 3.652757 33.748204 67.749965
2004-04-15 09:16:36 51°12.948 2°38.183 9.42426 3.661503 33.841233 63.334033
2004-04-15 09:17:36 51°12.765 2°38.012 9.407791 3.668775 33.926103 61.513725
2004-04-15 09:18:36 51°12.583 2°37.841 9.406845 3.674887 33.999111 59.423742
2004-04-15 09:19:37 51°12.398 2°37.665 9.402348 3.680261 34.056799 54.063947
2004-04-15 09:20:36 51°12.219 2°37.494 9.431641 3.686163 34.109809 45.838853
2004-04-15 09:21:37 51°12.035 2°37.316 9.496285 3.692801 34.137678 36.400221
2004-04-15 09:22:36 51°11.856 2°37.142 9.518024 3.693538 34.084643 27.534648
2004-04-15 09:23:36 51°11.673 2°36.966 9.479551 3.697227 34.145859 28.073999
2004-04-15 09:24:37 51°11.487 2°36.787 9.451415 3.701232 34.212762 27.736905
2004-04-15 09:25:36 51°11.306 2°36.615 9.433061 3.702181 34.249855 27.770614
2004-04-15 09:26:36 51°11.123 2°36.443 9.409353 3.703972 34.282393 25.579503
2004-04-15 09:27:36 51°10.941 2°36.271 9.386205 3.704605 34.311628 25.916597
2004-04-15 09:28:37 51°10.756 2°36.095 9.37915 3.703657 34.320666 30.399947
2004-04-15 09:29:37 51°10.575 2°35.922 9.395816 3.704289 34.322483 29.388665
2004-04-15 09:30:36 51°10.396 2°35.752 9.409353 3.706396 34.319913 27.46723
2004-04-15 09:31:37 51°10.211 2°35.578 9.375599 3.705764 34.322016 29.523503
2004-04-15 09:32:36 51°10.034 2°35.413 9.332872 3.704816 34.358551 30.029144
2004-04-15 09:33:37 51°9.852 2°35.246 9.352533 3.700074 34.32293 30.433657
2004-04-15 09:34:36 51°9.677 2°35.087 9.311877 3.697439 34.295718 28.781896
2004-04-15 09:35:37 51°9.483 2°34.966 9.295712 3.692908 34.277952 26.826751
2004-04-15 09:36:36 51°9.29 2°34.863 9.308464 3.692276 34.2777 29.017862
2004-04-15 09:37:37 51°9.126 2°34.819 9.300547 3.691854 34.257642 33.669759
2004-04-15 09:38:36 51°9.028 2°34.824 9.290591 3.694384 34.305776 28.309965
2004-04-15 09:39:36 51°8.946 2°34.829 9.314152 3.694068 34.301721 29.860597
2004-04-15 09:40:36 51°8.901 2°34.812 9.321451 3.695437 34.292308 28.781896
2004-04-15 09:41:36 51°8.901 2°34.805 9.353386 3.695543 34.278481 29.186409
2004-04-15 09:42:35 51°8.91 2°34.799 9.355234 3.697334 34.274232 27.332392
2004-04-15 09:43:37 51°8.925 2°34.795 9.357933 3.696912 34.276154 30.534785
2004-04-15 09:44:36 51°8.931 2°34.775 9.381754 3.697545 34.268569 28.748187
2004-04-15 09:45:36 51°8.896 2°34.748 9.362149 3.698809 34.283972 29.489794
2004-04-15 09:46:37 51°8.855 2°34.724 9.378014 3.698915 34.285844 26.118853
2004-04-15 09:47:37 51°8.817 2°34.681 9.375315 3.699757 34.281217 23.826614
2004-04-15 09:48:36 51°8.787 2°34.627 9.358597 3.697439 34.272184 27.43352
2004-04-15 09:49:35 51°8.758 2°34.569 9.356134 3.697123 34.273625 25.613212
2004-04-15 09:50:37 51°8.724 2°34.51 9.370484 3.697334 34.268745 22.040016
2004-04-15 09:51:36 51°8.694 2°34.45 9.361865 3.697966 34.269784 19.747777
2004-04-15 09:52:35 51°8.667 2°34.387 9.349975 3.697334 34.274232 22.040016
2004-04-15 09:53:36 51°8.637 2°34.327 9.351586 3.696386 34.274635 23.52323
2004-04-15 09:54:36 51°8.604 2°34.272 9.341969 3.696491 34.277291 23.725486
2004-04-15 09:55:37 51°8.572 2°34.214 9.33851 3.695753 34.273596 24.028871
2004-04-15 09:56:36 51°8.544 2°34.154 9.34448 3.695543 34.276911 26.422238
2004-04-15 09:57:36 51°8.516 2°34.093 9.336947 3.697018 34.281163 23.725486
2004-04-15 09:58:36 51°8.487 2°34.033 9.330313 3.695859 34.284885 26.118853
2004-04-15 09:59:36 51°8.456 2°33.973 9.329507 3.69607 34.287062 24.804187
2004-04-15 10:00:37 51°8.426 2°33.908 9.324484 3.696386 34.291113 25.073862
2004-04-15 10:01:37 51°8.4 2°33.841 9.321546 3.69607 34.294914 26.152563
2004-04-15 10:02:36 51°8.373 2°33.777 9.329792 3.696491 34.297698 26.253691
2004-04-15 10:03:36 51°8.349 2°33.707 9.318465 3.696491 34.299269 25.984016
2004-04-15 10:04:37 51°8.325 2°33.635 9.313489 3.695332 34.296717 27.096426
2004-04-15 10:05:37 51°8.3 2°33.565 9.317849 3.695543 34.295753 26.961589
2004-04-15 10:06:36 51°8.276 2°33.497 9.312872 3.695859 34.29902 26.523366
2004-04-15 10:07:36 51°8.251 2°33.425 9.312114 3.695648 34.299199 27.399811
2004-04-15 10:08:37 51°8.226 2°33.353 9.309507 3.695648 34.303913 29.523503
2004-04-15 10:09:36 51°8.201 2°33.284 9.308796 3.695543 34.30361 28.781896
2004-04-15 10:10:36 51°8.178 2°33.212 9.309365 3.695438 34.303307 28.647059
2004-04-15 10:11:36 51°8.153 2°33.141 9.309222 3.695332 34.303789 28.444802
2004-04-15 10:12:37 51°8.127 2°33.068 9.305525 3.69607 34.307484 27.602067
2004-04-15 10:13:36 51°8.102 2°32.997 9.302728 3.695648 34.311774 29.489794
2004-04-15 10:14:36 51°8.077 2°32.925 9.300784 3.69607 34.313773 29.354956
2004-04-15 10:15:37 51°8.051 2°32.852 9.314057 3.696808 34.318253 28.916734
2004-04-15 10:16:37 51°8.025 2°32.78 9.323821 3.698599 34.326549 27.130136
2004-04-15 10:17:37 51°8.001 2°32.708 9.32202 3.699758 34.32988 25.781759
2004-04-15 10:18:36 51°7.976 2°32.636 9.322825 3.70018 34.335808 25.916597
2004-04-15 10:19:37 51°7.951 2°32.562 9.324674 3.700074 34.334719 25.545794
2004-04-15 10:20:37 51°7.928 2°32.492 9.327659 3.700496 34.339075 25.006443
2004-04-15 10:21:37 51°7.901 2°32.428 9.329602 3.701233 34.339621 22.579366
2004-04-15 10:22:36 51°7.873 2°32.369 9.327659 3.70176 34.345851 21.702922
2004-04-15 10:23:36 51°7.84 2°32.314 9.325527 3.70155 34.348392 23.287264
2004-04-15 10:24:37 51°7.814 2°32.269 9.325337 3.702182 34.350993 23.051298
2004-04-15 10:25:36 51°7.808 2°32.236 9.321546 3.701866 34.352445 25.006443
2004-04-15 10:26:37 51°7.804 2°32.2 9.314436 3.70155 34.354685 31.006717
2004-04-15 10:27:37 51°7.753 2°32.225 9.321119 3.70155 34.357046 31.141554
2004-04-15 10:28:36 51°7.751 2°32.326 9.320598 3.701655 34.358922 32.557349
2004-04-15 10:29:36 51°7.791 2°32.413 9.324389 3.701339 34.350147 36.096836
2004-04-15 10:30:37 51°7.826 2°32.492 9.32202 3.700601 34.34095 38.051982
2004-04-15 10:31:36 51°7.855 2°32.566 9.319745 3.700074 34.337864 42.501623
2004-04-15 10:32:36 51°7.885 2°32.654 9.318418 3.699442 34.333689 43.546614
2004-04-15 10:33:37 51°7.916 2°32.743 9.316048 3.698494 34.323888 45.704016
2004-04-15 10:34:37 51°7.945 2°32.829 9.319034 3.698494 34.323888 47.996255
2004-04-15 10:35:36 51°7.975 2°32.905 9.313868 3.697756 34.317836 51.13123
2004-04-15 10:36:37 51°8.007 2°32.979 9.319461 3.697334 34.314266 51.333486
2004-04-15 10:37:37 51°8.039 2°33.049 9.321309 3.698704 34.318206 49.850272
2004-04-15 10:38:36 51°8.071 2°33.116 9.323631 3.698599 34.315546 48.771571
2004-04-15 10:39:36 51°8.106 2°33.18 9.32202 3.698283 34.313851 50.895264
2004-04-15 10:40:37 51°8.141 2°33.247 9.325337 3.697861 34.313424 52.8167
2004-04-15 10:41:37 51°8.173 2°33.316 9.320029 3.69765 34.309675 52.108802
2004-04-15 10:42:37 51°8.199 2°33.389 9.323678 3.696807 34.306464 50.355913
2004-04-15 10:43:37 51°8.224 2°33.463 9.324058 3.697229 34.306891 46.951264
2004-04-15 10:44:37 51°8.248 2°33.538 9.324911 3.697756 34.308407 46.984973
2004-04-15 10:45:37 51°8.275 2°33.612 9.334862 3.697334 34.304837 49.850272
2004-04-15 10:46:37 51°8.3 2°33.687 9.336947 3.698704 34.305638 49.378341
2004-04-15 10:47:37 51°8.324 2°33.763 9.337847 3.698493 34.304247 51.063811
2004-04-15 10:48:37 51°8.348 2°33.839 9.336662 3.699126 34.308421 52.277349
2004-04-15 10:49:37 51°8.372 2°33.916 9.345617 3.698809 34.304371 53.120084
2004-04-15 10:50:37 51°8.397 2°33.992 9.352297 3.699652 34.302872 53.794272
2004-04-15 10:51:37 51°8.421 2°34.069 9.358028 3.699969 34.304567 55.513452
2004-04-15 10:52:37 51°8.445 2°34.147 9.359449 3.700285 34.305476 55.61458
2004-04-15 10:53:37 51°8.469 2°34.223 9.363522 3.70039 34.303426 56.052802
2004-04-15 10:54:37 51°8.496 2°34.298 9.385211 3.70176 34.304229 53.794272
2004-04-15 10:55:37 51°8.523 2°34.372 9.388667 3.704078 34.310897 52.24364
2004-04-15 10:56:37 51°8.55 2°34.446 9.389093 3.703657 34.308901 55.850546
2004-04-15 10:57:37 51°8.576 2°34.521 9.399082 3.703973 34.309026 55.61458
2004-04-15 10:58:37 51°8.602 2°34.597 9.409353 3.705132 34.308441 52.8167
2004-04-15 10:59:37 51°8.628 2°34.671 9.419102 3.705869 34.308211 51.603161
2004-04-15 11:00:35 51°8.651 2°34.743 9.422935 3.706502 34.308463 49.546888
2004-04-15 11:01:36 51°8.675 2°34.818 9.402064 3.705659 34.306038 50.052529
2004-04-15 11:02:36 51°8.703 2°34.888 9.380523 3.703235 34.302201 51.569452
2004-04-15 11:03:37 51°8.731 2°34.962 9.389093 3.701865 34.293556 50.693007
2004-04-15 11:04:36 51°8.76 2°35.031 9.386489 3.70176 34.291685 47.760289
2004-04-15 11:05:36 51°8.785 2°35.096 9.400123 3.70197 34.288374 45.400631
2004-04-15 11:06:36 51°8.805 2°35.158 9.403579 3.703024 34.287492 40.816153
2004-04-15 11:07:36 51°8.821 2°35.215 9.400597 3.702392 34.283321 39.130683
2004-04-15 11:08:36 51°8.835 2°35.267 9.40178 3.702497 34.282059 39.83858
2004-04-15 11:09:36 51°8.85 2°35.315 9.408406 3.702602 34.27923 41.658888
2004-04-15 11:10:36 51°8.864 2°35.359 9.421752 3.702708 34.277968 43.546614
2004-04-15 11:11:37 51°8.891 2°35.42 9.413754 3.703129 34.281531 45.198375
2004-04-15 11:12:37 51°8.939 2°35.49 9.425443 3.702919 34.274662 48.906409
2004-04-15 11:13:37 51°8.98 2°35.567 9.416452 3.703551 34.274919 42.906136
2004-04-15 11:14:37 51°9.017 2°35.645 9.414133 3.702286 34.271275 42.973554
2004-04-15 11:15:37 51°9.05 2°35.727 9.408643 3.702076 34.272233 45.602888
2004-04-15 11:16:36 51°9.078 2°35.808 9.402869 3.701654 34.267105 46.108529
2004-04-15 11:17:36 51°9.107 2°35.886 9.401354 3.70039 34.26659 51.367195
2004-04-15 11:18:37 51°9.141 2°35.961 9.42303 3.700706 34.262023 48.434477
2004-04-15 11:19:36 51°9.175 2°36.031 9.432493 3.702918 34.26371 42.265657
2004-04-15 11:20:37 51°9.211 2°36.104 9.429512 3.703235 34.264621 39.501486
2004-04-15 11:21:37 51°9.245 2°36.176 9.434527 3.703129 34.263535 41.995982
2004-04-15 11:22:36 51°9.278 2°36.248 9.442475 3.703129 34.257281 43.276939
2004-04-15 11:23:37 51°9.312 2°36.322 9.456901 3.704077 34.258453 40.344221
2004-04-15 11:24:37 51°9.343 2°36.397 9.469197 3.705026 34.254938 39.434067
2004-04-15 11:25:38 51°9.375 2°36.474 9.468393 3.705763 34.25316 38.625042
2004-04-15 11:26:37 51°9.403 2°36.548 9.49241 3.706396 34.253422 38.186819
2004-04-15 11:27:37 51°9.43 2°36.621 9.512968 3.708398 34.250613 33.905725
2004-04-15 11:28:37 51°9.457 2°36.693 9.520245 3.709978 34.252831 33.06299
2004-04-15 11:29:38 51°9.49 2°36.763 9.52393 3.7104 34.253267 33.0967
2004-04-15 11:30:36 51°9.519 2°36.829 9.537299 3.71061 34.24686 33.905725
2004-04-15 11:31:36 51°9.551 2°36.897 9.559591 3.712296 34.245491 34.20911
2004-04-15 11:32:37 51°9.58 2°36.966 9.556569 3.713877 34.250049 34.681042
2004-04-15 11:33:37 51°9.61 2°37.035 9.560204 3.713455 34.248833 37.883435
2004-04-15 11:34:36 51°9.639 2°37.104 9.561904 3.713561 34.24758 40.917281
2004-04-15 11:35:37 51°9.667 2°37.175 9.571347 3.714193 34.247068 42.0634
2004-04-15 11:36:36 51°9.695 2°37.242 9.571536 3.714825 34.248112 43.411777
2004-04-15 11:37:36 51°9.722 2°37.311 9.568845 3.714931 34.249973 44.153383
2004-04-15 11:38:37 51°9.754 2°37.381 9.566201 3.713772 34.248188 44.254512
2004-04-15 11:39:37 51°9.783 2°37.449 9.561385 3.713982 34.24646 42.602751
2004-04-15 11:40:37 51°9.81 2°37.515 9.548682 3.713877 34.250049 41.658888
2004-04-15 11:41:36 51°9.835 2°37.58 9.554585 3.713245 34.253677 42.501623
2004-04-15 11:42:37 51°9.861 2°37.65 9.55246 3.713982 34.251909 40.512768
2004-04-15 11:43:35 51°9.886 2°37.717 9.537583 3.71177 34.258775 40.040836
2004-04-15 11:44:36 51°9.908 2°37.789 9.533851 3.712296 34.252501 37.344084
2004-04-15 11:45:36 51°9.927 2°37.86 9.518355 3.709767 34.248326 37.681178
2004-04-15 11:46:36 51°9.944 2°37.931 9.556002 3.711348 34.24665 41.254375
2004-04-15 11:47:37 51°9.96 2°38.006 9.587633 3.714088 34.243651 42.703879
2004-04-15 11:48:37 51°9.977 2°38.086 9.613069 3.716406 34.244113 44.187093
2004-04-15 11:49:37 51°10.008 2°38.176 9.652971 3.718935 34.236641 39.164392
2004-04-15 11:50:37 51°10.002 2°38.312 9.728512 3.72178 34.233204 31.444939
2004-04-15 11:51:36 51°9.936 2°38.372 9.833689 3.731685 34.210701 18.500529
2004-04-15 11:52:37 51°9.888 2°38.371 9.815396 3.732528 34.196159 18.770204
2004-04-15 11:53:37 51°9.86 2°38.358 9.809422 3.730841 34.188205 24.500802
2004-04-15 11:54:37 51°9.844 2°38.344 9.815819 3.73042 34.186988 27.838033
2004-04-15 11:55:36 51°9.835 2°38.331 9.813467 3.731052 34.186501 31.040426
2004-04-15 11:56:37 51°9.82 2°38.3 9.825836 3.731052 34.184959 35.119264
2004-04-15 11:57:37 51°9.797 2°38.253 9.847935 3.733054 34.186889 33.568631
2004-04-15 11:58:36 51°9.771 2°38.201 9.858418 3.7359 34.198186 30.737042
2004-04-15 11:59:37 51°9.751 2°38.143 9.862131 3.736637 34.204166 31.242683
2004-04-15 12:00:37 51°9.731 2°38.089 9.867254 3.73748 34.20891 31.849452
2004-04-15 12:01:37 51°9.71 2°38.038 9.869134 3.739272 34.217157 27.534648
2004-04-15 12:02:37 51°9.691 2°37.983 9.854846 3.740115 34.231146 26.219982
2004-04-15 12:03:37 51°9.674 2°37.917 9.845679 3.738218 34.227995 27.46723
2004-04-15 12:04:36 51°9.654 2°37.851 9.841777 3.738113 34.232319 25.916597
2004-04-15 12:05:37 51°9.631 2°37.786 9.831056 3.737481 34.229726 23.624358
2004-04-15 12:06:37 51°9.607 2°37.722 9.824755 3.737586 34.240062 21.871469
2004-04-15 12:07:37 51°9.584 2°37.658 9.82673 3.737059 34.242405 20.185999
2004-04-15 12:08:37 51°9.56 2°37.595 9.830116 3.738851 34.249878 19.073589
2004-04-15 12:09:37 51°9.537 2°37.532 9.844926 3.739799 34.254923 19.714067
2004-04-15 12:10:37 51°9.514 2°37.47 9.846854 3.741485 34.264405 20.455674
2004-04-15 12:11:37 51°9.489 2°37.406 9.842012 3.741907 34.268705 21.534375
2004-04-15 12:12:37 51°9.463 2°37.342 9.835711 3.742118 34.273172 21.635503
2004-04-15 12:13:37 51°9.441 2°37.274 9.816007 3.741275 34.277704 22.849042
2004-04-15 12:14:37 51°9.424 2°37.203 9.802977 3.739694 34.281667 22.882751
2004-04-15 12:15:37 51°9.406 2°37.135 9.818265 3.739483 34.281061 21.197281
2004-04-15 12:16:37 51°9.385 2°37.072 9.846995 3.741907 34.277975 18.230853
2004-04-15 12:17:37 51°9.361 2°37.013 9.870497 3.742855 34.247513 15.972324
2004-04-15 12:18:37 51°9.337 2°36.954 9.845914 3.742855 34.225171 16.74764
2004-04-15 12:19:37 51°9.314 2°36.895 9.859076 3.74001 34.239324 19.916324
2004-04-15 12:20:37 51°9.292 2°36.837 9.830633 3.74138 34.238642 20.995024
2004-04-15 12:21:37 51°9.27 2°36.778 9.814878 3.738745 34.241856 22.410819
2004-04-15 12:22:37 51°9.248 2°36.718 9.807211 3.737059 34.234685 27.231264
2004-04-15 12:23:37 51°9.225 2°36.655 9.79672 3.735689 34.235371 32.624768
2004-04-15 12:24:37 51°9.204 2°36.591 9.748855 3.734846 34.237577 32.591059
2004-04-15 12:25:37 51°9.186 2°36.518 9.722059 3.729051 34.23944 50.794136
2004-04-15 12:26:36 51°9.171 2°36.434 9.720693 3.726838 34.23616 52.749281
2004-04-15 12:27:37 51°9.166 2°36.347 9.749655 3.729578 34.235541 40.209383
2004-04-15 12:28:37 51°9.169 2°36.265 9.701802 3.722306 34.178976 31.546067
2004-04-15 12:29:37 51°9.18 2°36.185 9.693651 3.728313 34.238089 29.051571
2004-04-15 12:30:36 51°9.198 2°36.109 9.681539 3.72178 34.216923 34.714751
2004-04-15 12:31:37 51°9.219 2°36.045 9.59811 3.721885 34.252135 34.512494
2004-04-15 12:32:37 51°9.241 2°35.996 9.582347 3.717565 34.247455 35.557486
2004-04-15 12:33:37 51°9.264 2°35.958 9.650897 3.719883 34.239376 26.725623
2004-04-15 12:34:37 51°9.287 2°35.928 9.736801 3.717248 34.148876 21.938888
2004-04-15 12:35:37 51°9.33 2°35.889 9.689881 3.729894 34.248062 20.69164
2004-04-15 12:36:37 51°9.44 2°35.946 9.622929 3.729261 34.2238 20.421965
2004-04-15 12:37:36 51°9.482 2°36.027 9.480591 3.716301 34.272606 24.905315
2004-04-15 12:38:37 51°9.485 2°36.06 9.488723 3.703971 34.215224 27.46723
2004-04-15 12:39:36 51°9.485 2°36.086 9.528087 3.715036 34.282216 29.793178
2004-04-15 12:40:37 51°9.484 2°36.11 9.531914 3.714194 34.28681 37.209247
2004-04-15 12:41:37 51°9.485 2°36.132 9.616513 3.722939 34.276148 31.680905
2004-04-15 12:42:38 51°9.486 2°36.154 9.736942 3.728103 34.270033 27.972871
2004-04-15 12:43:37 51°9.486 2°36.174 9.768297 3.729473 34.277077 29.456084
2004-04-15 12:44:37 51°9.485 2°36.193 9.806082 3.736638 34.272111 25.073862
2004-04-15 12:45:37 51°9.485 2°36.211 9.832467 3.735479 34.272648 27.770614
2004-04-15 12:46:36 51°9.485 2°36.229 9.776863 3.73843 34.269527 28.208836
2004-04-15 12:47:37 51°9.484 2°36.245 9.754457 3.735268 34.262756 28.781896
2004-04-15 12:48:37 51°9.485 2°36.34 9.843751 3.735584 34.261345 28.073999
2004-04-15 12:49:36 51°9.568 2°36.599 9.772863 3.738008 34.254403 17.994888
2004-04-15 12:50:37 51°9.712 2°36.891 9.671452 3.728208 34.249403 22.208563
2004-04-15 12:51:37 51°9.851 2°37.187 9.714523 3.723782 34.239752 22.91646
2004-04-15 12:52:37 51°9.987 2°37.485 9.716925 3.728208 34.238559 18.635366
2004-04-15 12:53:37 51°10.124 2°37.782 9.657828 3.727786 34.241217 25.242409
2004-04-15 12:54:37 51°10.259 2°38.078 9.416121 3.709873 34.256427 31.37752
2004-04-15 12:55:36 51°10.387 2°38.372 9.469764 3.704182 34.20882 31.040426
2004-04-15 12:56:37 51°10.523 2°38.675 9.521001 3.703655 34.186274 28.276255
2004-04-15 12:57:37 51°10.656 2°38.973 9.521662 3.703023 34.182109 41.625178
2004-04-15 12:58:35 51°10.785 2°39.26 9.504037 3.70239 34.172499 45.636597
2004-04-15 12:59:37 51°10.925 2°39.569 9.538197 3.701969 34.162724 40.209383
2004-04-15 13:00:37 51°11.062 2°39.868 9.546462 3.706184 34.163288 32.793315
2004-04-15 13:01:37 51°11.197 2°40.169 9.596128 3.706605 34.161404 32.961862
2004-04-15 13:02:37 51°11.323 2°40.481 9.564643 3.710188 34.187305 35.961999
2004-04-15 13:03:37 51°11.399 2°40.829 9.556427 3.709029 34.201822 37.58005
2004-04-15 13:04:36 51°11.498 2°41.154 9.545895 3.709135 34.204459 35.557486
2004-04-15 13:05:37 51°11.61 2°41.481 9.540086 3.707449 34.201918 37.00699
2004-04-15 13:06:37 51°11.72 2°41.803 9.546084 3.707554 34.199889 37.782306
2004-04-15 13:07:36 51°11.825 2°42.12 9.584707 3.705973 34.182875 34.040563
2004-04-15 13:08:37 51°11.922 2°42.455 9.609388 3.710399 34.166189 31.748324
2004-04-15 13:09:37 51°12.017 2°42.785 9.609813 3.709661 34.160951 32.287674
2004-04-15 13:10:37 51°12.102 2°43.121 9.595326 3.709029 34.149817 34.681042
2004-04-15 13:11:37 51°12.186 2°43.457 9.653207 3.708502 34.139766 32.422512
2004-04-15 13:12:37 51°12.27 2°43.79 9.613163 3.705445 34.113084 33.804597
2004-04-15 13:13:37 51°12.342 2°44.129 9.610757 3.701335 34.064 37.681178
2004-04-15 13:14:37 51°12.402 2°44.47 9.587067 3.695434 34.01048 38.220529
2004-04-15 13:15:37 51°12.462 2°44.809 9.680455 3.690375 33.939404 40.209383
2004-04-15 13:16:37 51°12.521 2°45.147 9.649341 3.68226 33.826429 48.973828
2004-04-15 13:17:36 51°12.582 2°45.477 9.706137 3.660025 33.622025 54.637007
2004-04-15 13:18:38 51°12.666 2°45.818 9.66259 3.646431 33.436879 49.917691
2004-04-15 13:19:37 51°12.764 2°46.13 9.703075 3.628833 33.254408 58.311332
2004-04-15 13:20:37 51°12.873 2°46.436 9.659054 3.609234 33.068183 66.637554
2004-04-15 13:21:37 51°13.004 2°46.717 9.722577 3.586685 32.831124 68.188187
2004-04-15 13:22:37 51°13.145 2°46.989 9.758082 3.577412 32.684288 68.188187
2004-04-15 13:23:36 51°13.283 2°47.26 9.725074 3.559289 32.49298 68.221896
2004-04-15 13:24:37 51°13.425 2°47.541 9.689362 3.537269 32.31931 68.154477
2004-04-15 13:25:37 51°13.548 2°47.795 9.6467 3.515882 32.132101 68.120768
2004-04-15 13:26:37 51°13.589 2°47.934 9.579184 3.501132 32.035366 68.053349
2004-04-15 13:27:37 51°13.632 2°48.009 9.65547 3.496286 31.99556 68.053349
2004-04-15 13:28:37 51°13.663 2°48.079 9.649341 3.498604 31.974149 68.053349
2004-04-15 13:29:36 51°13.686 2°48.144 9.631419 3.497866 31.982601 68.154477
2004-04-15 13:30:38 51°13.704 2°48.212 9.620994 3.498393 31.9952 68.087059
2004-04-15 13:31:37 51°13.719 2°48.277 9.604623 3.495865 31.981846 68.087059
2004-04-15 13:32:38 51°13.736 2°48.344 9.609436 3.493758 31.961892 68.120768
2004-04-15 13:33:37 51°13.755 2°48.407 9.601225 3.490703 31.93303 68.087059
2004-04-15 13:34:37 51°13.775 2°48.471 9.633778 3.489438 31.910781 68.087059
2004-04-15 13:35:37 51°13.8 2°48.531 9.713298 3.491334 31.88378 68.120768
2004-04-15 13:36:37 51°13.828 2°48.59 9.775922 3.494388 31.851328 68.221896
2004-04-15 13:37:37 51°13.856 2°48.648 9.830915 3.497548 31.830846 66.738683
2004-04-15 13:38:36 51°13.883 2°48.707 9.800813 3.496389 31.798349 65.828529
2004-04-15 13:39:37 51°13.909 2°48.768 9.742734 3.490806 31.783497 68.55899
2004-04-15 13:40:38 51°13.935 2°48.828 9.698221 3.486698 31.800076 68.188187
2004-04-15 13:41:37 51°13.959 2°48.886 9.646275 3.480272 31.765888 68.120768
2004-04-15 13:42:37 51°13.985 2°48.945 9.640192 3.476164 31.748685 68.154477
2004-04-15 13:43:38 51°14.013 2°49.007 9.645379 3.472266 31.722099 68.120768
2004-04-15 13:44:37 51°14.038 2°49.069 9.637268 3.470264 31.696773 68.120768
2004-04-15 13:45:37 51°14.064 2°49.13 9.639107 3.468894 31.676429 68.154477
2004-04-15 13:46:36 51°14.09 2°49.191 9.677061 3.468051 31.659282 68.154477
2004-04-15 13:47:37 51°14.116 2°49.254 9.739673 3.471001 31.632601 68.188187
2004-04-15 13:48:37 51°14.142 2°49.315 9.706231 3.474266 31.652767 68.221896
2004-04-15 13:49:37 51°14.168 2°49.376 9.711178 3.473634 31.670696 68.120768
2004-04-15 13:50:37 51°14.194 2°49.438 9.709859 3.474266 31.673514 68.120768
2004-04-15 13:51:37 51°14.22 2°49.499 9.709152 3.472581 31.650018 68.188187
2004-04-15 13:52:37 51°14.246 2°49.56 9.667257 3.470369 31.654819 68.120768
2004-04-15 13:53:37 51°14.271 2°49.621 9.655848 3.468578 31.668922 68.120768
2004-04-15 13:54:37 51°14.298 2°49.682 9.641654 3.466893 31.64539 68.188187
2004-04-15 13:55:37 51°14.324 2°49.743 9.618588 3.462258 31.619906 68.154477
2004-04-15 13:56:37 51°14.349 2°49.804 9.619438 3.457201 31.580817 68.221896
2004-04-15 13:57:37 51°14.374 2°49.865 9.688373 3.454567 31.525537 60.333896
2004-04-15 13:58:36 51°14.4 2°49.924 9.685687 3.454567 31.489889 53.221212
2004-04-15 13:59:37 51°14.424 2°49.986 9.666267 3.450458 31.463983 53.389759
2004-04-15 14:00:37 51°14.445 2°50.048 9.652123 3.446877 31.443391 54.266204
2004-04-15 14:01:37 51°14.463 2°50.114 9.669897 3.44793 31.459753 56.019093
2004-04-15 14:02:37 51°14.478 2°50.181 9.675553 3.449299 31.454391 53.760563
2004-04-15 14:03:37 51°14.488 2°50.236 9.653443 3.447087 31.4441 53.35605
2004-04-15 14:04:37 51°14.499 2°50.271 9.711413 3.447403 31.427381 53.962819
2004-04-15 14:05:38 51°14.514 2°50.293 9.743864 3.450247 31.414234 48.805281
2004-04-15 14:06:38 51°14.527 2°50.306 9.756435 3.449509 31.385517 45.906272
2004-04-15 14:07:37 51°14.565 2°50.327 9.768862 3.449404 31.375248 45.130956
2004-04-15 14:08:37 51°14.616 2°50.346 9.780345 3.452775 31.399359 44.996118
2004-04-15 14:09:38 51°14.668 2°50.379 9.726251 3.447824 31.362129 46.546751
2004-04-15 14:10:37 51°14.712 2°50.422 9.703499 3.441819 31.346089 48.771571
2004-04-15 14:11:37 51°14.754 2°50.472 9.737554 3.441187 31.339701 45.569178
2004-04-15 14:12:38 51°14.795 2°50.522 9.827341 3.44519 31.321412 39.872289
2004-04-15 14:13:38 51°14.835 2°50.572 9.877874 3.450878 31.315253 36.366512
2004-04-15 14:14:37 51°14.874 2°50.62 9.92588 3.452247 31.291025 32.759606
2004-04-15 14:15:37 51°14.914 2°50.672 9.916253 3.455828 31.290494 29.253828
2004-04-15 14:16:37 51°14.951 2°50.729 9.833736 3.452352 31.290679 29.388665
2004-04-15 14:17:37 51°14.986 2°50.788 9.798132 3.444346 31.273417 31.849452
2004-04-15 14:18:37 51°15.02 2°50.847 9.766791 3.441924 31.276479 31.242683
2004-04-15 14:19:37 51°15.055 2°50.905 9.74264 3.437184 31.260399 30.770751
2004-04-15 14:20:38 51°15.09 2°50.965 9.727758 3.435604 31.261386 31.41123
2004-04-15 14:21:37 51°15.12 2°51.027 9.733645 3.436236 31.271298 32.220255
2004-04-15 14:22:37 51°15.15 2°51.092 9.847982 3.441081 31.264457 32.456221
2004-04-15 14:23:37 51°15.178 2°51.159 9.873833 3.446453 31.245393 32.388802
2004-04-15 14:24:37 51°15.204 2°51.227 9.897842 3.448876 31.259228 32.557349
2004-04-15 14:25:38 51°15.231 2°51.296 9.898687 3.449718 31.257168 32.085418
2004-04-15 14:26:37 51°15.259 2°51.361 9.949682 3.449823 31.235775 29.253828
2004-04-15 14:27:37 51°15.286 2°51.426 9.970425 3.45035 31.212344 27.635777
2004-04-15 14:28:37 51°15.313 2°51.491 9.965545 3.451087 31.207152 26.624494
2004-04-15 14:29:37 51°15.34 2°51.556 9.986986 3.453721 31.241983 28.175127
2004-04-15 14:30:38 51°15.368 2°51.623 10.021129 3.45214 31.189763 26.32111
2004-04-15 14:31:37 51°15.395 2°51.687 9.99421 3.452351 31.193272 26.051435
2004-04-15 14:32:38 51°15.422 2°51.754 9.946255 3.452456 31.188043 25.815469
2004-04-15 14:33:38 51°15.449 2°51.82 9.984594 3.453932 31.269337 29.624631
2004-04-15 14:34:38 51°15.477 2°51.887 10.032849 3.455511 31.208889 26.86046
2004-04-15 14:35:36 51°15.503 2°51.952 10.022254 3.454247 31.199012 25.141281
2004-04-15 14:36:38 51°15.531 2°52.022 10.011329 3.453509 31.190923 23.388392
2004-04-15 14:37:38 51°15.558 2°52.09 10.033693 3.453193 31.203818 23.792905
2004-04-15 14:38:37 51°15.582 2°52.157 10.067436 3.452877 31.158789 24.096289
2004-04-15 14:39:38 51°15.597 2°52.232 9.986048 3.452561 31.169563 24.028871
2004-04-15 14:40:38 51°15.604 2°52.308 9.918648 3.448559 31.213266 25.882888
2004-04-15 14:41:37 51°15.601 2°52.383 9.897889 3.448138 31.230056 26.995298
2004-04-15 14:42:37 51°15.592 2°52.45 9.886896 3.445926 31.230265 28.175127
2004-04-15 14:43:36 51°15.579 2°52.497 9.868476 3.442344 31.202663 26.961589
2004-04-15 14:44:37 51°15.569 2°52.533 9.943439 3.441923 31.182304 25.74805
2004-04-15 14:45:38 51°15.56 2°52.587 10.010578 3.445398 31.148681 21.871469
2004-04-15 14:46:38 51°15.475 2°52.693 9.964606 3.4474 31.162475 21.972597
2004-04-15 14:47:37 51°15.342 2°52.607 9.897184 3.441395 31.136441 31.984289
2004-04-15 14:48:38 51°15.301 2°52.434 9.843563 3.437709 31.15675 28.377383
2004-04-15 14:49:37 51°15.297 2°52.342 9.900989 3.435287 31.196211 31.849452
2004-04-15 14:50:37 51°15.285 2°52.326 9.724085 3.441082 31.313162 35.961999
2004-04-15 14:51:37 51°15.275 2°52.307 9.776298 3.437079 31.277689 36.265383
2004-04-15 14:52:37 51°15.264 2°52.287 9.784769 3.437921 31.22134 32.220255
2004-04-15 14:53:37 51°15.253 2°52.259 9.818406 3.437921 31.222747 33.669759
2004-04-15 14:54:36 51°15.194 2°52.165 9.862272 3.439816 31.180741 30.399947
2004-04-15 14:55:37 51°15.091 2°52.285 9.948602 3.43792 31.152567 27.062717
2004-04-15 14:56:37 51°15.029 2°52.591 9.795591 3.440764 31.166455 28.714477
2004-04-15 14:57:37 51°14.974 2°52.916 9.906626 3.431179 31.187849 39.231811
2004-04-15 14:58:38 51°14.898 2°53.242 10.101395 3.442026 31.026579 36.029418
2004-04-15 14:59:38 51°14.816 2°53.562 10.269575 3.430016 30.833513 36.164255
2004-04-15 15:00:37 51°14.738 2°53.877 10.209807 3.4376 30.898145 38.490204
2004-04-15 15:01:37 51°14.665 2°54.203 10.046723 3.434967 30.909058 37.681178
2004-04-15 15:02:37 51°14.573 2°54.514 10.183341 3.426646 30.868679 39.063264
2004-04-15 15:03:37 51°14.46 2°54.81 10.02863 3.432122 30.83323 26.422238
2004-04-15 15:04:37 51°14.345 2°55.103 10.018597 3.411479 30.902867 40.445349
2004-04-15 15:05:37 51°14.22 2°55.322 10.094324 3.311834 29.757535 31.141554
2004-04-15 15:06:36 51°14.104 2°55.426 10.070997 3.294982 29.57864 26.118853